sensor_id;sensor_type;location;lat;lon;timestamp;P1;durP1;ratioP1;P2;durP2;ratioP2
72639;SDS011;60683;51.730;8.762;2023-01-29T00:00:44;19.52;;;7.88;;
72639;SDS011;60683;51.730;8.762;2023-01-29T00:03:32;16.38;;;7.65;;
72639;SDS011;60683;51.730;8.762;2023-01-29T00:06:03;11.55;;;7.35;;
72639;SDS011;60683;51.730;8.762;2023-01-29T00:08:32;18.58;;;7.55;;
72639;SDS011;60683;51.730;8.762;2023-01-29T00:11:00;16.58;;;7.68;;
72639;SDS011;60683;51.730;8.762;2023-01-29T00:13:28;16.77;;;6.63;;
72639;SDS011;60683;51.730;8.762;2023-01-29T00:15:57;19.00;;;8.68;;
72639;SDS011;60683;51.730;8.762;2023-01-29T00:18:25;19.35;;;8.50;;
72639;SDS011;60683;51.730;8.762;2023-01-29T00:20:54;13.63;;;7.00;;
72639;SDS011;60683;51.730;8.762;2023-01-29T00:23:21;16.33;;;8.43;;
72639;SDS011;60683;51.730;8.762;2023-01-29T00:25:49;18.75;;;8.65;;
72639;SDS011;60683;51.730;8.762;2023-01-29T00:28:16;16.20;;;7.68;;
72639;SDS011;60683;51.730;8.762;2023-01-29T00:30:44;21.30;;;9.68;;
72639;SDS011;60683;51.730;8.762;2023-01-29T00:33:15;15.73;;;8.00;;
72639;SDS011;60683;51.730;8.762;2023-01-29T00:35:44;13.63;;;7.28;;
72639;SDS011;60683;51.730;8.762;2023-01-29T00:38:16;24.48;;;6.93;;
72639;SDS011;60683;51.730;8.762;2023-01-29T00:40:43;20.90;;;10.02;;
72639;SDS011;60683;51.730;8.762;2023-01-29T00:43:28;20.02;;;8.75;;
72639;SDS011;60683;51.730;8.762;2023-01-29T00:46:14;15.52;;;6.93;;
72639;SDS011;60683;51.730;8.762;2023-01-29T00:48:43;18.63;;;8.52;;
72639;SDS011;60683;51.730;8.762;2023-01-29T00:51:10;18.92;;;7.03;;
72639;SDS011;60683;51.730;8.762;2023-01-29T00:53:38;17.90;;;8.32;;
72639;SDS011;60683;51.730;8.762;2023-01-29T00:56:06;20.35;;;8.00;;
72639;SDS011;60683;51.730;8.762;2023-01-29T00:58:34;15.93;;;6.47;;
72639;SDS011;60683;51.730;8.762;2023-01-29T01:01:01;14.45;;;6.80;;
72639;SDS011;60683;51.730;8.762;2023-01-29T01:03:29;14.85;;;7.68;;
72639;SDS011;60683;51.730;8.762;2023-01-29T01:06:05;15.63;;;8.00;;
72639;SDS011;60683;51.730;8.762;2023-01-29T01:08:34;13.23;;;8.00;;
72639;SDS011;60683;51.730;8.762;2023-01-29T01:11:19;18.40;;;7.93;;
72639;SDS011;60683;51.730;8.762;2023-01-29T01:13:47;15.70;;;5.93;;
72639;SDS011;60683;51.730;8.762;2023-01-29T01:16:15;15.27;;;7.10;;
72639;SDS011;60683;51.730;8.762;2023-01-29T01:18:44;16.00;;;7.18;;
72639;SDS011;60683;51.730;8.762;2023-01-29T01:21:13;16.40;;;6.18;;
72639;SDS011;60683;51.730;8.762;2023-01-29T01:23:40;18.95;;;7.93;;
72639;SDS011;60683;51.730;8.762;2023-01-29T01:26:08;21.30;;;9.10;;
72639;SDS011;60683;51.730;8.762;2023-01-29T01:28:36;18.08;;;8.65;;
72639;SDS011;60683;51.730;8.762;2023-01-29T01:31:08;16.13;;;7.78;;
72639;SDS011;60683;51.730;8.762;2023-01-29T01:33:36;18.95;;;8.48;;
72639;SDS011;60683;51.730;8.762;2023-01-29T01:36:04;20.35;;;9.35;;
72639;SDS011;60683;51.730;8.762;2023-01-29T01:38:36;15.48;;;7.22;;
72639;SDS011;60683;51.730;8.762;2023-01-29T01:41:09;23.65;;;8.85;;
72639;SDS011;60683;51.730;8.762;2023-01-29T01:43:50;21.00;;;8.77;;
72639;SDS011;60683;51.730;8.762;2023-01-29T01:46:19;17.88;;;8.57;;
72639;SDS011;60683;51.730;8.762;2023-01-29T01:48:47;16.27;;;7.05;;
72639;SDS011;60683;51.730;8.762;2023-01-29T01:51:17;20.05;;;9.55;;
72639;SDS011;60683;51.730;8.762;2023-01-29T01:53:48;17.95;;;8.07;;
72639;SDS011;60683;51.730;8.762;2023-01-29T01:56:20;17.35;;;8.00;;
72639;SDS011;60683;51.730;8.762;2023-01-29T01:58:53;23.27;;;7.90;;
72639;SDS011;60683;51.730;8.762;2023-01-29T02:01:22;16.20;;;6.25;;
72639;SDS011;60683;51.730;8.762;2023-01-29T02:03:55;17.40;;;7.95;;
72639;SDS011;60683;51.730;8.762;2023-01-29T02:06:41;16.02;;;8.63;;
72639;SDS011;60683;51.730;8.762;2023-01-29T02:09:30;18.75;;;8.68;;
72639;SDS011;60683;51.730;8.762;2023-01-29T02:12:01;20.02;;;8.70;;
72639;SDS011;60683;51.730;8.762;2023-01-29T02:14:29;20.05;;;8.55;;
72639;SDS011;60683;51.730;8.762;2023-01-29T02:17:00;22.10;;;9.02;;
72639;SDS011;60683;51.730;8.762;2023-01-29T02:19:31;22.65;;;9.23;;
72639;SDS011;60683;51.730;8.762;2023-01-29T02:22:11;16.52;;;8.73;;
72639;SDS011;60683;51.730;8.762;2023-01-29T02:25:02;17.73;;;8.70;;
72639;SDS011;60683;51.730;8.762;2023-01-29T02:28:00;19.35;;;8.13;;
72639;SDS011;60683;51.730;8.762;2023-01-29T02:30:34;20.90;;;8.77;;
72639;SDS011;60683;51.730;8.762;2023-01-29T02:33:08;15.30;;;7.38;;
72639;SDS011;60683;51.730;8.762;2023-01-29T02:35:41;21.50;;;7.82;;
72639;SDS011;60683;51.730;8.762;2023-01-29T02:38:16;18.88;;;7.03;;
72639;SDS011;60683;51.730;8.762;2023-01-29T02:40:46;22.55;;;9.18;;
72639;SDS011;60683;51.730;8.762;2023-01-29T02:43:27;25.45;;;9.52;;
72639;SDS011;60683;51.730;8.762;2023-01-29T02:45:59;13.00;;;6.80;;
72639;SDS011;60683;51.730;8.762;2023-01-29T02:48:35;15.00;;;6.28;;
72639;SDS011;60683;51.730;8.762;2023-01-29T02:51:07;17.33;;;8.07;;
72639;SDS011;60683;51.730;8.762;2023-01-29T02:53:39;14.68;;;7.30;;
72639;SDS011;60683;51.730;8.762;2023-01-29T02:56:10;21.58;;;9.50;;
72639;SDS011;60683;51.730;8.762;2023-01-29T02:58:44;16.98;;;8.13;;
72639;SDS011;60683;51.730;8.762;2023-01-29T03:01:15;17.75;;;6.85;;
72639;SDS011;60683;51.730;8.762;2023-01-29T03:03:46;19.88;;;8.35;;
72639;SDS011;60683;51.730;8.762;2023-01-29T03:08:49;15.65;;;7.47;;
72639;SDS011;60683;51.730;8.762;2023-01-29T03:11:20;15.45;;;6.18;;
72639;SDS011;60683;51.730;8.762;2023-01-29T03:13:50;15.82;;;7.63;;
72639;SDS011;60683;51.730;8.762;2023-01-29T03:16:21;15.50;;;7.25;;
72639;SDS011;60683;51.730;8.762;2023-01-29T03:18:53;21.75;;;8.75;;
72639;SDS011;60683;51.730;8.762;2023-01-29T03:21:24;22.38;;;8.00;;
72639;SDS011;60683;51.730;8.762;2023-01-29T03:24:16;14.65;;;6.78;;
72639;SDS011;60683;51.730;8.762;2023-01-29T03:27:06;14.32;;;8.57;;
72639;SDS011;60683;51.730;8.762;2023-01-29T03:29:55;19.90;;;8.05;;
72639;SDS011;60683;51.730;8.762;2023-01-29T03:32:41;23.40;;;8.05;;
72639;SDS011;60683;51.730;8.762;2023-01-29T03:35:11;18.52;;;7.97;;
72639;SDS011;60683;51.730;8.762;2023-01-29T03:37:46;14.48;;;7.32;;
72639;SDS011;60683;51.730;8.762;2023-01-29T03:40:15;18.45;;;7.85;;
72639;SDS011;60683;51.730;8.762;2023-01-29T03:42:45;24.00;;;8.38;;
72639;SDS011;60683;51.730;8.762;2023-01-29T03:45:25;18.70;;;8.48;;
72639;SDS011;60683;51.730;8.762;2023-01-29T03:47:59;17.48;;;7.90;;
72639;SDS011;60683;51.730;8.762;2023-01-29T03:50:32;19.50;;;8.73;;
72639;SDS011;60683;51.730;8.762;2023-01-29T03:53:05;16.55;;;7.22;;
72639;SDS011;60683;51.730;8.762;2023-01-29T03:55:39;17.92;;;7.53;;
72639;SDS011;60683;51.730;8.762;2023-01-29T03:58:11;21.65;;;8.07;;
72639;SDS011;60683;51.730;8.762;2023-01-29T04:00:48;16.55;;;7.35;;
72639;SDS011;60683;51.730;8.762;2023-01-29T04:03:19;18.30;;;8.13;;
72639;SDS011;60683;51.730;8.762;2023-01-29T04:05:48;18.80;;;8.27;;
72639;SDS011;60683;51.730;8.762;2023-01-29T04:08:19;17.48;;;8.15;;
72639;SDS011;60683;51.730;8.762;2023-01-29T04:10:49;17.40;;;7.90;;
72639;SDS011;60683;51.730;8.762;2023-01-29T04:13:19;16.48;;;7.28;;
72639;SDS011;60683;51.730;8.762;2023-01-29T04:15:49;20.38;;;9.20;;
72639;SDS011;60683;51.730;8.762;2023-01-29T04:18:19;16.15;;;7.32;;
72639;SDS011;60683;51.730;8.762;2023-01-29T04:20:46;19.25;;;8.45;;
72639;SDS011;60683;51.730;8.762;2023-01-29T04:23:18;19.80;;;8.30;;
72639;SDS011;60683;51.730;8.762;2023-01-29T04:25:51;18.73;;;8.60;;
72639;SDS011;60683;51.730;8.762;2023-01-29T04:28:22;22.10;;;8.93;;
72639;SDS011;60683;51.730;8.762;2023-01-29T04:30:57;21.75;;;8.88;;
72639;SDS011;60683;51.730;8.762;2023-01-29T04:33:28;19.20;;;8.68;;
72639;SDS011;60683;51.730;8.762;2023-01-29T04:38:56;17.58;;;7.18;;
72639;SDS011;60683;51.730;8.762;2023-01-29T04:41:30;16.40;;;8.10;;
72639;SDS011;60683;51.730;8.762;2023-01-29T04:44:04;18.42;;;7.35;;
72639;SDS011;60683;51.730;8.762;2023-01-29T04:46:39;14.77;;;6.00;;
72639;SDS011;60683;51.730;8.762;2023-01-29T04:49:16;21.40;;;7.07;;
72639;SDS011;60683;51.730;8.762;2023-01-29T04:51:50;19.20;;;6.53;;
72639;SDS011;60683;51.730;8.762;2023-01-29T04:54:24;21.20;;;6.95;;
72639;SDS011;60683;51.730;8.762;2023-01-29T04:56:59;15.60;;;6.07;;
72639;SDS011;60683;51.730;8.762;2023-01-29T04:59:30;23.67;;;8.38;;
72639;SDS011;60683;51.730;8.762;2023-01-29T05:02:03;28.08;;;9.82;;
72639;SDS011;60683;51.730;8.762;2023-01-29T05:04:32;17.08;;;7.45;;
72639;SDS011;60683;51.730;8.762;2023-01-29T05:07:01;19.42;;;7.95;;
72639;SDS011;60683;51.730;8.762;2023-01-29T05:09:30;18.42;;;7.43;;
72639;SDS011;60683;51.730;8.762;2023-01-29T05:11:59;19.25;;;8.60;;
72639;SDS011;60683;51.730;8.762;2023-01-29T05:14:26;20.40;;;8.70;;
72639;SDS011;60683;51.730;8.762;2023-01-29T05:16:55;18.52;;;8.20;;
72639;SDS011;60683;51.730;8.762;2023-01-29T05:19:25;14.90;;;7.22;;
72639;SDS011;60683;51.730;8.762;2023-01-29T05:21:52;23.52;;;10.40;;
72639;SDS011;60683;51.730;8.762;2023-01-29T05:24:21;21.13;;;7.85;;
72639;SDS011;60683;51.730;8.762;2023-01-29T05:26:51;22.63;;;8.25;;
72639;SDS011;60683;51.730;8.762;2023-01-29T05:29:37;18.33;;;7.78;;
72639;SDS011;60683;51.730;8.762;2023-01-29T05:32:05;20.63;;;8.50;;
72639;SDS011;60683;51.730;8.762;2023-01-29T05:34:34;16.98;;;6.55;;
72639;SDS011;60683;51.730;8.762;2023-01-29T05:37:01;17.92;;;7.90;;
72639;SDS011;60683;51.730;8.762;2023-01-29T05:39:29;18.33;;;7.60;;
72639;SDS011;60683;51.730;8.762;2023-01-29T05:41:57;20.73;;;9.73;;
72639;SDS011;60683;51.730;8.762;2023-01-29T05:44:25;22.13;;;8.63;;
72639;SDS011;60683;51.730;8.762;2023-01-29T05:46:52;17.27;;;7.80;;
72639;SDS011;60683;51.730;8.762;2023-01-29T05:49:21;17.23;;;7.72;;
72639;SDS011;60683;51.730;8.762;2023-01-29T05:51:50;20.58;;;9.27;;
72639;SDS011;60683;51.730;8.762;2023-01-29T05:54:18;22.25;;;9.43;;
72639;SDS011;60683;51.730;8.762;2023-01-29T05:56:46;21.83;;;8.77;;
72639;SDS011;60683;51.730;8.762;2023-01-29T05:59:13;16.08;;;7.25;;
72639;SDS011;60683;51.730;8.762;2023-01-29T06:01:41;19.38;;;7.80;;
72639;SDS011;60683;51.730;8.762;2023-01-29T06:04:09;21.30;;;7.93;;
72639;SDS011;60683;51.730;8.762;2023-01-29T06:06:37;22.33;;;7.72;;
72639;SDS011;60683;51.730;8.762;2023-01-29T06:09:05;18.13;;;6.88;;
72639;SDS011;60683;51.730;8.762;2023-01-29T06:11:33;15.80;;;7.68;;
72639;SDS011;60683;51.730;8.762;2023-01-29T06:14:00;17.30;;;8.23;;
72639;SDS011;60683;51.730;8.762;2023-01-29T06:16:28;22.83;;;8.93;;
72639;SDS011;60683;51.730;8.762;2023-01-29T06:18:56;23.15;;;9.15;;
72639;SDS011;60683;51.730;8.762;2023-01-29T06:21:23;14.15;;;5.63;;
72639;SDS011;60683;51.730;8.762;2023-01-29T06:23:51;23.58;;;8.75;;
72639;SDS011;60683;51.730;8.762;2023-01-29T06:26:20;20.73;;;8.77;;
72639;SDS011;60683;51.730;8.762;2023-01-29T06:28:48;24.70;;;8.88;;
72639;SDS011;60683;51.730;8.762;2023-01-29T06:31:16;22.02;;;9.18;;
72639;SDS011;60683;51.730;8.762;2023-01-29T06:33:44;17.67;;;7.97;;
72639;SDS011;60683;51.730;8.762;2023-01-29T06:36:11;18.90;;;8.13;;
72639;SDS011;60683;51.730;8.762;2023-01-29T06:38:39;25.85;;;10.85;;
72639;SDS011;60683;51.730;8.762;2023-01-29T06:41:07;24.20;;;10.15;;
72639;SDS011;60683;51.730;8.762;2023-01-29T06:43:37;22.58;;;9.65;;
72639;SDS011;60683;51.730;8.762;2023-01-29T06:46:06;24.95;;;9.00;;
72639;SDS011;60683;51.730;8.762;2023-01-29T06:48:34;28.08;;;11.98;;
72639;SDS011;60683;51.730;8.762;2023-01-29T06:51:02;25.15;;;9.65;;
72639;SDS011;60683;51.730;8.762;2023-01-29T06:53:30;26.92;;;9.20;;
72639;SDS011;60683;51.730;8.762;2023-01-29T06:55:59;20.10;;;8.68;;
72639;SDS011;60683;51.730;8.762;2023-01-29T06:58:26;22.17;;;8.60;;
72639;SDS011;60683;51.730;8.762;2023-01-29T07:01:02;27.75;;;10.35;;
72639;SDS011;60683;51.730;8.762;2023-01-29T07:03:30;27.70;;;9.45;;
72639;SDS011;60683;51.730;8.762;2023-01-29T07:05:58;20.95;;;9.23;;
72639;SDS011;60683;51.730;8.762;2023-01-29T07:08:26;25.15;;;9.95;;
72639;SDS011;60683;51.730;8.762;2023-01-29T07:10:57;25.75;;;9.48;;
72639;SDS011;60683;51.730;8.762;2023-01-29T07:13:25;26.42;;;10.60;;
72639;SDS011;60683;51.730;8.762;2023-01-29T07:15:53;19.73;;;9.73;;
72639;SDS011;60683;51.730;8.762;2023-01-29T07:18:22;16.65;;;8.43;;
72639;SDS011;60683;51.730;8.762;2023-01-29T07:20:49;27.02;;;11.02;;
72639;SDS011;60683;51.730;8.762;2023-01-29T07:23:17;26.20;;;9.40;;
72639;SDS011;60683;51.730;8.762;2023-01-29T07:25:45;24.25;;;8.40;;
72639;SDS011;60683;51.730;8.762;2023-01-29T07:28:14;23.75;;;10.05;;
72639;SDS011;60683;51.730;8.762;2023-01-29T07:30:43;25.73;;;10.10;;
72639;SDS011;60683;51.730;8.762;2023-01-29T07:33:10;22.63;;;9.38;;
72639;SDS011;60683;51.730;8.762;2023-01-29T07:35:42;26.33;;;10.63;;
72639;SDS011;60683;51.730;8.762;2023-01-29T07:38:10;22.10;;;8.98;;
72639;SDS011;60683;51.730;8.762;2023-01-29T07:40:38;21.98;;;9.57;;
72639;SDS011;60683;51.730;8.762;2023-01-29T07:43:06;25.98;;;8.65;;
72639;SDS011;60683;51.730;8.762;2023-01-29T07:45:34;25.30;;;8.93;;
72639;SDS011;60683;51.730;8.762;2023-01-29T07:48:03;25.58;;;10.48;;
72639;SDS011;60683;51.730;8.762;2023-01-29T07:50:31;14.40;;;6.75;;
72639;SDS011;60683;51.730;8.762;2023-01-29T07:53:01;20.17;;;8.48;;
72639;SDS011;60683;51.730;8.762;2023-01-29T07:55:29;21.52;;;8.38;;
72639;SDS011;60683;51.730;8.762;2023-01-29T07:57:57;19.85;;;8.30;;
72639;SDS011;60683;51.730;8.762;2023-01-29T08:00:26;19.13;;;7.82;;
72639;SDS011;60683;51.730;8.762;2023-01-29T08:02:56;22.25;;;8.57;;
72639;SDS011;60683;51.730;8.762;2023-01-29T08:05:30;18.33;;;6.50;;
72639;SDS011;60683;51.730;8.762;2023-01-29T08:07:58;18.48;;;7.35;;
72639;SDS011;60683;51.730;8.762;2023-01-29T08:10:27;16.25;;;6.80;;
72639;SDS011;60683;51.730;8.762;2023-01-29T08:12:55;20.17;;;8.32;;
72639;SDS011;60683;51.730;8.762;2023-01-29T08:15:24;21.83;;;8.20;;
72639;SDS011;60683;51.730;8.762;2023-01-29T08:17:52;15.52;;;7.43;;
72639;SDS011;60683;51.730;8.762;2023-01-29T08:20:20;15.93;;;6.40;;
72639;SDS011;60683;51.730;8.762;2023-01-29T08:22:48;16.23;;;6.85;;
72639;SDS011;60683;51.730;8.762;2023-01-29T08:25:17;16.48;;;6.55;;
72639;SDS011;60683;51.730;8.762;2023-01-29T08:27:46;15.82;;;6.07;;
72639;SDS011;60683;51.730;8.762;2023-01-29T08:30:13;14.13;;;6.45;;
72639;SDS011;60683;51.730;8.762;2023-01-29T08:32:41;19.40;;;7.45;;
72639;SDS011;60683;51.730;8.762;2023-01-29T08:35:09;15.80;;;6.38;;
72639;SDS011;60683;51.730;8.762;2023-01-29T08:37:36;16.08;;;5.93;;
72639;SDS011;60683;51.730;8.762;2023-01-29T08:40:04;18.73;;;6.93;;
72639;SDS011;60683;51.730;8.762;2023-01-29T08:42:34;18.02;;;7.13;;
72639;SDS011;60683;51.730;8.762;2023-01-29T08:45:04;14.82;;;5.30;;
72639;SDS011;60683;51.730;8.762;2023-01-29T08:47:35;16.13;;;6.65;;
72639;SDS011;60683;51.730;8.762;2023-01-29T08:50:02;13.63;;;5.80;;
72639;SDS011;60683;51.730;8.762;2023-01-29T08:52:30;14.40;;;6.25;;
72639;SDS011;60683;51.730;8.762;2023-01-29T08:54:59;15.38;;;6.47;;
72639;SDS011;60683;51.730;8.762;2023-01-29T08:57:26;17.77;;;5.88;;
72639;SDS011;60683;51.730;8.762;2023-01-29T08:59:54;15.73;;;5.68;;
72639;SDS011;60683;51.730;8.762;2023-01-29T09:02:23;16.50;;;6.00;;
72639;SDS011;60683;51.730;8.762;2023-01-29T09:04:51;13.77;;;5.20;;
72639;SDS011;60683;51.730;8.762;2023-01-29T09:07:18;18.10;;;6.90;;
72639;SDS011;60683;51.730;8.762;2023-01-29T09:09:47;11.38;;;5.93;;
72639;SDS011;60683;51.730;8.762;2023-01-29T09:12:14;16.73;;;5.93;;
72639;SDS011;60683;51.730;8.762;2023-01-29T09:14:42;13.52;;;5.60;;
72639;SDS011;60683;51.730;8.762;2023-01-29T09:17:10;15.43;;;6.57;;
72639;SDS011;60683;51.730;8.762;2023-01-29T09:19:39;13.88;;;5.55;;
72639;SDS011;60683;51.730;8.762;2023-01-29T09:22:06;17.50;;;6.88;;
72639;SDS011;60683;51.730;8.762;2023-01-29T09:24:34;13.57;;;5.93;;
72639;SDS011;60683;51.730;8.762;2023-01-29T09:27:01;17.65;;;6.32;;
72639;SDS011;60683;51.730;8.762;2023-01-29T09:29:32;16.10;;;6.30;;
72639;SDS011;60683;51.730;8.762;2023-01-29T09:31:59;16.38;;;5.88;;
72639;SDS011;60683;51.730;8.762;2023-01-29T09:34:27;15.80;;;6.30;;
72639;SDS011;60683;51.730;8.762;2023-01-29T09:36:56;11.32;;;5.13;;
72639;SDS011;60683;51.730;8.762;2023-01-29T09:39:24;16.67;;;7.68;;
72639;SDS011;60683;51.730;8.762;2023-01-29T09:41:55;15.43;;;6.65;;
72639;SDS011;60683;51.730;8.762;2023-01-29T09:44:28;15.63;;;5.85;;
72639;SDS011;60683;51.730;8.762;2023-01-29T09:47:04;15.60;;;6.70;;
72639;SDS011;60683;51.730;8.762;2023-01-29T09:49:40;14.13;;;7.30;;
72639;SDS011;60683;51.730;8.762;2023-01-29T09:52:12;11.43;;;5.53;;
72639;SDS011;60683;51.730;8.762;2023-01-29T09:54:45;17.85;;;7.10;;
72639;SDS011;60683;51.730;8.762;2023-01-29T09:57:18;15.50;;;6.88;;
72639;SDS011;60683;51.730;8.762;2023-01-29T09:59:51;17.23;;;6.07;;
72639;SDS011;60683;51.730;8.762;2023-01-29T10:02:21;13.35;;;4.75;;
72639;SDS011;60683;51.730;8.762;2023-01-29T10:05:14;16.20;;;5.53;;
72639;SDS011;60683;51.730;8.762;2023-01-29T10:08:02;13.48;;;5.47;;
72639;SDS011;60683;51.730;8.762;2023-01-29T10:10:42;16.70;;;6.30;;
72639;SDS011;60683;51.730;8.762;2023-01-29T10:13:18;16.63;;;6.07;;
72639;SDS011;60683;51.730;8.762;2023-01-29T10:15:54;17.23;;;6.25;;
72639;SDS011;60683;51.730;8.762;2023-01-29T10:18:47;15.98;;;7.20;;
72639;SDS011;60683;51.730;8.762;2023-01-29T10:21:47;16.52;;;6.82;;
72639;SDS011;60683;51.730;8.762;2023-01-29T10:24:28;16.67;;;6.90;;
72639;SDS011;60683;51.730;8.762;2023-01-29T10:27:07;12.25;;;5.47;;
72639;SDS011;60683;51.730;8.762;2023-01-29T10:29:39;9.68;;;4.88;;
72639;SDS011;60683;51.730;8.762;2023-01-29T10:32:10;21.33;;;7.05;;
72639;SDS011;60683;51.730;8.762;2023-01-29T10:34:41;13.95;;;5.90;;
72639;SDS011;60683;51.730;8.762;2023-01-29T10:37:13;9.15;;;4.40;;
72639;SDS011;60683;51.730;8.762;2023-01-29T10:39:44;13.63;;;5.70;;
72639;SDS011;60683;51.730;8.762;2023-01-29T10:42:14;15.00;;;6.57;;
72639;SDS011;60683;51.730;8.762;2023-01-29T10:50:27;9.07;;;5.57;;
72639;SDS011;60683;51.730;8.762;2023-01-29T10:53:15;13.80;;;5.68;;
72639;SDS011;60683;51.730;8.762;2023-01-29T10:55:57;14.38;;;6.20;;
72639;SDS011;60683;51.730;8.762;2023-01-29T10:58:32;13.68;;;5.85;;
72639;SDS011;60683;51.730;8.762;2023-01-29T11:01:00;14.40;;;5.88;;
72639;SDS011;60683;51.730;8.762;2023-01-29T11:03:28;15.40;;;6.15;;
72639;SDS011;60683;51.730;8.762;2023-01-29T11:06:00;14.10;;;5.32;;
72639;SDS011;60683;51.730;8.762;2023-01-29T11:08:32;10.05;;;4.03;;
72639;SDS011;60683;51.730;8.762;2023-01-29T11:11:05;15.05;;;5.95;;
72639;SDS011;60683;51.730;8.762;2023-01-29T11:13:37;8.18;;;3.20;;
72639;SDS011;60683;51.730;8.762;2023-01-29T11:16:07;14.13;;;6.13;;
72639;SDS011;60683;51.730;8.762;2023-01-29T11:18:51;13.25;;;5.35;;
72639;SDS011;60683;51.730;8.762;2023-01-29T11:21:20;12.75;;;6.25;;
72639;SDS011;60683;51.730;8.762;2023-01-29T11:23:49;13.35;;;6.10;;
72639;SDS011;60683;51.730;8.762;2023-01-29T11:26:19;14.23;;;6.72;;
72639;SDS011;60683;51.730;8.762;2023-01-29T11:28:49;12.27;;;4.93;;
72639;SDS011;60683;51.730;8.762;2023-01-29T11:31:18;14.23;;;6.50;;
72639;SDS011;60683;51.730;8.762;2023-01-29T11:33:48;12.10;;;5.40;;
72639;SDS011;60683;51.730;8.762;2023-01-29T11:39:11;9.18;;;4.55;;
72639;SDS011;60683;51.730;8.762;2023-01-29T11:41:43;11.73;;;5.18;;
72639;SDS011;60683;51.730;8.762;2023-01-29T11:44:16;18.65;;;6.15;;
72639;SDS011;60683;51.730;8.762;2023-01-29T11:46:44;16.73;;;6.20;;
72639;SDS011;60683;51.730;8.762;2023-01-29T11:49:19;5.93;;;2.08;;
72639;SDS011;60683;51.730;8.762;2023-01-29T11:51:50;4.05;;;1.85;;
72639;SDS011;60683;51.730;8.762;2023-01-29T11:54:19;9.68;;;3.63;;
72639;SDS011;60683;51.730;8.762;2023-01-29T11:56:52;11.18;;;4.93;;
72639;SDS011;60683;51.730;8.762;2023-01-29T11:59:25;10.98;;;5.05;;
72639;SDS011;60683;51.730;8.762;2023-01-29T12:02:04;12.38;;;5.15;;
72639;SDS011;60683;51.730;8.762;2023-01-29T12:04:38;13.00;;;4.47;;
72639;SDS011;60683;51.730;8.762;2023-01-29T12:07:09;10.30;;;4.75;;
72639;SDS011;60683;51.730;8.762;2023-01-29T12:09:38;13.02;;;5.63;;
72639;SDS011;60683;51.730;8.762;2023-01-29T12:12:16;13.55;;;5.93;;
72639;SDS011;60683;51.730;8.762;2023-01-29T12:14:45;13.30;;;5.15;;
72639;SDS011;60683;51.730;8.762;2023-01-29T12:17:13;11.45;;;4.93;;
72639;SDS011;60683;51.730;8.762;2023-01-29T12:19:44;12.18;;;5.68;;
72639;SDS011;60683;51.730;8.762;2023-01-29T12:22:14;6.82;;;4.15;;
72639;SDS011;60683;51.730;8.762;2023-01-29T12:24:47;12.48;;;5.47;;
72639;SDS011;60683;51.730;8.762;2023-01-29T12:29:47;8.95;;;3.42;;
72639;SDS011;60683;51.730;8.762;2023-01-29T12:32:21;8.50;;;4.28;;
72639;SDS011;60683;51.730;8.762;2023-01-29T12:37:22;9.63;;;3.08;;
72639;SDS011;60683;51.730;8.762;2023-01-29T12:39:54;11.57;;;4.00;;
72639;SDS011;60683;51.730;8.762;2023-01-29T12:42:25;11.02;;;4.78;;
72639;SDS011;60683;51.730;8.762;2023-01-29T12:44:55;10.43;;;4.53;;
72639;SDS011;60683;51.730;8.762;2023-01-29T12:47:25;12.80;;;6.18;;
72639;SDS011;60683;51.730;8.762;2023-01-29T12:49:56;6.05;;;3.22;;
72639;SDS011;60683;51.730;8.762;2023-01-29T12:52:28;13.00;;;5.43;;
72639;SDS011;60683;51.730;8.762;2023-01-29T12:55:04;12.50;;;5.43;;
72639;SDS011;60683;51.730;8.762;2023-01-29T12:57:37;10.07;;;5.72;;
72639;SDS011;60683;51.730;8.762;2023-01-29T13:00:09;8.65;;;4.35;;
72639;SDS011;60683;51.730;8.762;2023-01-29T13:02:44;7.53;;;2.58;;
72639;SDS011;60683;51.730;8.762;2023-01-29T13:05:17;5.70;;;2.28;;
72639;SDS011;60683;51.730;8.762;2023-01-29T13:07:48;13.18;;;5.22;;
72639;SDS011;60683;51.730;8.762;2023-01-29T13:10:19;8.32;;;4.32;;
72639;SDS011;60683;51.730;8.762;2023-01-29T13:12:52;13.23;;;4.80;;
72639;SDS011;60683;51.730;8.762;2023-01-29T13:15:22;7.88;;;3.08;;
72639;SDS011;60683;51.730;8.762;2023-01-29T13:17:54;13.07;;;5.00;;
72639;SDS011;60683;51.730;8.762;2023-01-29T13:20:25;13.45;;;5.07;;
72639;SDS011;60683;51.730;8.762;2023-01-29T13:22:55;9.90;;;3.45;;
72639;SDS011;60683;51.730;8.762;2023-01-29T13:25:25;10.95;;;5.47;;
72639;SDS011;60683;51.730;8.762;2023-01-29T13:27:54;13.73;;;5.15;;
72639;SDS011;60683;51.730;8.762;2023-01-29T13:30:25;10.05;;;4.22;;
72639;SDS011;60683;51.730;8.762;2023-01-29T13:32:54;11.05;;;4.55;;
72639;SDS011;60683;51.730;8.762;2023-01-29T13:35:34;8.93;;;4.53;;
72639;SDS011;60683;51.730;8.762;2023-01-29T13:38:02;6.90;;;3.55;;
72639;SDS011;60683;51.730;8.762;2023-01-29T13:40:31;11.88;;;5.18;;
72639;SDS011;60683;51.730;8.762;2023-01-29T13:43:01;8.90;;;4.90;;
72639;SDS011;60683;51.730;8.762;2023-01-29T13:45:32;10.80;;;4.65;;
72639;SDS011;60683;51.730;8.762;2023-01-29T13:48:07;11.60;;;5.22;;
72639;SDS011;60683;51.730;8.762;2023-01-29T13:50:37;5.82;;;2.58;;
72639;SDS011;60683;51.730;8.762;2023-01-29T13:53:06;8.48;;;4.05;;
72639;SDS011;60683;51.730;8.762;2023-01-29T13:55:43;13.50;;;5.18;;
72639;SDS011;60683;51.730;8.762;2023-01-29T13:58:14;13.15;;;5.68;;
72639;SDS011;60683;51.730;8.762;2023-01-29T14:12:30;7.63;;;3.75;;
72639;SDS011;60683;51.730;8.762;2023-01-29T14:20:55;16.52;;;6.47;;
72639;SDS011;60683;51.730;8.762;2023-01-29T14:23:31;11.10;;;5.97;;
72639;SDS011;60683;51.730;8.762;2023-01-29T14:26:17;14.10;;;5.68;;
72639;SDS011;60683;51.730;8.762;2023-01-29T14:28:51;17.30;;;7.15;;
72639;SDS011;60683;51.730;8.762;2023-01-29T14:34:25;16.17;;;7.72;;
72639;SDS011;60683;51.730;8.762;2023-01-29T14:36:55;23.40;;;6.15;;
72639;SDS011;60683;51.730;8.762;2023-01-29T14:39:34;19.38;;;7.60;;
72639;SDS011;60683;51.730;8.762;2023-01-29T14:42:03;16.95;;;6.68;;
72639;SDS011;60683;51.730;8.762;2023-01-29T14:47:54;9.98;;;4.43;;
72639;SDS011;60683;51.730;8.762;2023-01-29T14:50:39;14.00;;;5.65;;
72639;SDS011;60683;51.730;8.762;2023-01-29T14:53:09;8.27;;;4.03;;
72639;SDS011;60683;51.730;8.762;2023-01-29T14:55:40;15.48;;;7.20;;
72639;SDS011;60683;51.730;8.762;2023-01-29T14:58:10;14.43;;;7.82;;
72639;SDS011;60683;51.730;8.762;2023-01-29T15:00:40;9.32;;;4.85;;
72639;SDS011;60683;51.730;8.762;2023-01-29T15:03:12;14.13;;;6.55;;
72639;SDS011;60683;51.730;8.762;2023-01-29T15:05:44;12.23;;;5.97;;
72639;SDS011;60683;51.730;8.762;2023-01-29T15:08:14;14.20;;;6.05;;
72639;SDS011;60683;51.730;8.762;2023-01-29T15:10:47;11.60;;;6.40;;
72639;SDS011;60683;51.730;8.762;2023-01-29T15:13:41;15.02;;;5.75;;
72639;SDS011;60683;51.730;8.762;2023-01-29T15:16:13;14.45;;;6.35;;
72639;SDS011;60683;51.730;8.762;2023-01-29T15:18:44;10.52;;;4.82;;
72639;SDS011;60683;51.730;8.762;2023-01-29T15:21:13;17.88;;;8.00;;
72639;SDS011;60683;51.730;8.762;2023-01-29T15:23:41;10.18;;;4.40;;
72639;SDS011;60683;51.730;8.762;2023-01-29T15:26:09;13.88;;;5.65;;
72639;SDS011;60683;51.730;8.762;2023-01-29T15:28:40;10.95;;;6.28;;
72639;SDS011;60683;51.730;8.762;2023-01-29T15:31:10;8.32;;;3.33;;
72639;SDS011;60683;51.730;8.762;2023-01-29T15:33:40;14.50;;;6.53;;
72639;SDS011;60683;51.730;8.762;2023-01-29T15:36:14;9.43;;;4.25;;
72639;SDS011;60683;51.730;8.762;2023-01-29T15:38:45;17.60;;;7.07;;
72639;SDS011;60683;51.730;8.762;2023-01-29T15:41:16;10.95;;;5.15;;
72639;SDS011;60683;51.730;8.762;2023-01-29T15:43:45;12.88;;;5.95;;